Time;durP1;ratioP1;P1;durP2;ratioP2;P2;SDS_P1;SDS_P2;PMS_P1;PMS_P2;Temp;Humidity;BMP_temperature;BMP_pressure;BME280_temperature;BME280_humidity;BME280_pressure;Samples;Min_cycle;Max_cycle;Signal;HPM_P1;HPM_P2
2022/07/02 00:02:24;;;;;;;;;5.67;5.33;;;;;18.74;46.38;101516.06;5075038;27;45250;-69
2022/07/02 00:04:57;;;;;;;;;4.00;4.00;;;;;18.77;46.87;101523.94;5070550;27;45333;-69
2022/07/02 00:07:24;;;;;;;;;6.00;6.00;;;;;18.73;47.32;101527.81;5078303;27;45545;-63
2022/07/02 00:09:52;;;;;;;;;5.00;5.00;;;;;18.73;47.33;101525.13;5070167;28;45489;-67
2022/07/02 00:12:18;;;;;;;;;5.00;5.00;;;;;18.66;47.53;101528.44;5078828;27;46236;-67
2022/07/02 00:14:44;;;;;;;;;5.00;5.00;;;;;18.66;47.62;101529.28;5078183;27;45324;-69
2022/07/02 00:17:10;;;;;;;;;6.00;5.00;;;;;18.66;47.82;101525.72;5092843;27;45477;-63
2022/07/02 00:19:37;;;;;;;;;6.00;5.00;;;;;18.60;47.56;101524.31;5064859;27;45449;-69
2022/07/02 00:22:03;;;;;;;;;5.33;4.00;;;;;18.57;48.06;101535.31;5083594;27;45425;-67
2022/07/02 00:24:28;;;;;;;;;4.00;4.00;;;;;18.55;48.21;101521.09;5073691;27;45520;-61
2022/07/02 00:26:57;;;;;;;;;6.00;5.00;;;;;18.50;48.15;101521.47;5086571;27;45484;-68
2022/07/02 00:29:34;;;;;;;;;6.33;5.00;;;;;18.50;48.16;101528.69;5071661;28;45491;-65
2022/07/02 00:31:59;;;;;;;;;5.00;5.00;;;;;18.30;47.92;101499.66;5060463;28;47233;-68
2022/07/02 00:34:25;;;;;;;;;4.67;3.00;;;;;18.43;48.07;101530.97;5077657;27;45366;-61
2022/07/02 00:36:51;;;;;;;;;4.00;4.00;;;;;18.35;48.79;101524.41;5078863;28;45292;-68
2022/07/02 00:39:17;;;;;;;;;4.67;4.67;;;;;18.37;49.37;101527.88;5078906;27;45317;-63
2022/07/02 00:41:45;;;;;;;;;7.00;6.00;;;;;18.33;50.62;101519.13;5076357;27;46162;-63
2022/07/02 00:44:10;;;;;;;;;4.00;4.00;;;;;18.25;51.11;101522.41;5083429;27;45537;-62
2022/07/02 00:46:37;;;;;;;;;4.00;4.00;;;;;18.19;51.28;101514.78;5072377;27;45702;-68
2022/07/02 00:49:03;;;;;;;;;7.00;5.00;;;;;18.18;51.66;101523.81;5075437;28;45382;-67
2022/07/02 00:51:28;;;;;;;;;9.33;5.33;;;;;18.13;52.51;101515.22;5077191;27;46299;-67
2022/07/02 00:53:54;;;;;;;;;6.33;6.33;;;;;18.15;52.33;101521.38;5078637;27;45499;-68
2022/07/02 00:56:20;;;;;;;;;7.00;5.00;;;;;18.10;52.32;101504.69;5064022;28;45385;-65
2022/07/02 00:58:46;;;;;;;;;6.00;6.00;;;;;18.12;52.51;101508.13;5075545;27;45749;-66
2022/07/02 01:01:12;;;;;;;;;4.00;4.00;;;;;18.09;52.85;101508.34;5077653;27;45507;-64
2022/07/02 01:03:41;;;;;;;;;8.00;8.00;;;;;17.90;53.19;101489.13;5076412;27;45721;-68
2022/07/02 01:06:06;;;;;;;;;5.67;4.67;;;;;18.01;53.33;101508.06;5062525;27;45582;-67
2022/07/02 01:11:18;;;;;;;;;4.67;4.67;;;;;17.98;53.45;101500.22;5072873;28;45466;-69
2022/07/02 01:13:44;;;;;;;;;5.00;4.67;;;;;17.96;53.56;101507.50;5068746;27;45525;-68
2022/07/02 01:16:09;;;;;;;;;4.00;4.00;;;;;17.88;54.42;101499.16;5092034;27;45915;-65
2022/07/02 01:18:37;;;;;;;;;6.00;3.00;;;;;17.85;54.38;101511.00;5073448;27;46961;-66
2022/07/02 01:21:04;;;;;;;;;4.00;4.00;;;;;17.85;54.47;101507.44;5059005;27;45459;-61
2022/07/02 01:23:29;;;;;;;;;5.67;3.00;;;;;17.85;54.17;101512.84;5075943;27;45188;-63
2022/07/02 01:25:55;;;;;;;;;3.67;3.67;;;;;17.78;54.52;101503.47;5069749;28;45241;-61
2022/07/02 01:28:22;;;;;;;;;5.67;4.33;;;;;17.80;55.54;101512.28;5073873;27;45585;-66
2022/07/02 01:30:48;;;;;;;;;4.67;4.33;;;;;17.77;54.89;101521.44;5076965;27;46435;-65
2022/07/02 01:33:14;;;;;;;;;5.00;4.00;;;;;17.72;54.86;101520.06;5073652;28;45626;-67
2022/07/02 01:35:39;;;;;;;;;3.67;3.67;;;;;17.61;55.18;101508.19;5055768;28;45277;-69
2022/07/02 01:38:05;;;;;;;;;6.00;4.00;;;;;17.56;55.66;101520.22;5075349;27;45588;-68
2022/07/02 01:40:31;;;;;;;;;4.00;3.00;;;;;17.52;55.62;101529.50;5071690;27;45712;-66
2022/07/02 01:42:56;;;;;;;;;5.00;5.00;;;;;17.52;56.00;101535.72;5077179;27;45523;-71
2022/07/02 01:45:21;;;;;;;;;2.67;2.67;;;;;17.48;56.14;101523.47;5073462;27;45762;-69
2022/07/02 01:47:47;;;;;;;;;8.67;7.00;;;;;17.47;56.07;101532.50;5077615;27;45543;-69
2022/07/02 01:50:12;;;;;;;;;4.33;4.33;;;;;17.43;56.09;101509.47;5075062;27;46032;-67
2022/07/02 01:52:38;;;;;;;;;4.67;3.00;;;;;17.45;56.46;101526.38;5071440;27;45526;-67
2022/07/02 01:55:03;;;;;;;;;4.00;4.00;;;;;17.37;56.58;101520.66;5062157;28;45715;-69
2022/07/02 01:57:33;;;;;;;;;5.33;3.67;;;;;17.39;56.48;101524.09;5077667;27;45522;-69
2022/07/02 01:59:59;;;;;;;;;3.00;3.00;;;;;17.37;56.96;101531.44;5074487;27;45621;-68
2022/07/02 02:02:24;;;;;;;;;5.00;3.33;;;;;17.36;56.77;101524.34;5076306;27;45432;-68
2022/07/02 02:04:50;;;;;;;;;3.67;3.67;;;;;17.31;56.91;101521.09;5076864;28;45449;-72
2022/07/02 02:07:15;;;;;;;;;5.33;4.33;;;;;17.35;57.06;101522.59;5075360;27;45217;-68
2022/07/02 02:09:41;;;;;;;;;3.00;3.00;;;;;17.28;56.96;101514.09;5074806;27;45389;-68
2022/07/02 02:12:06;;;;;;;;;4.00;4.00;;;;;17.31;57.14;101521.94;5072481;28;47008;-67
2022/07/02 02:14:32;;;;;;;;;3.00;3.00;;;;;17.30;57.11;101520.22;5075599;27;45566;-65
2022/07/02 02:16:58;;;;;;;;;3.00;3.00;;;;;17.26;57.38;101521.41;5069461;28;45440;-70
2022/07/02 02:19:23;;;;;;;;;5.00;4.00;;;;;17.23;57.33;101512.72;5076658;28;45258;-69
2022/07/02 02:21:49;;;;;;;;;4.00;4.00;;;;;17.23;57.85;101520.78;5076500;27;45223;-65
2022/07/02 02:24:15;;;;;;;;;4.33;3.00;;;;;17.22;57.68;101519.06;5077513;28;45357;-62
2022/07/02 02:26:41;;;;;;;;;3.67;3.67;;;;;17.18;57.65;101509.47;5075474;27;45799;-64
2022/07/02 02:29:06;;;;;;;;;4.67;4.67;;;;;17.21;57.62;101504.75;5068985;28;45851;-68
2022/07/02 02:31:32;;;;;;;;;5.67;5.00;;;;;17.18;57.96;101510.31;5074265;27;45530;-62
2022/07/02 02:33:57;;;;;;;;;5.00;5.00;;;;;17.12;58.12;101504.53;5076693;27;45492;-64
2022/07/02 02:36:22;;;;;;;;;4.00;4.00;;;;;16.94;58.03;101477.97;5075626;27;45416;-67
2022/07/02 02:38:48;;;;;;;;;3.67;3.33;;;;;16.84;57.91;101467.94;5074805;27;46110;-65
2022/07/02 02:41:14;;;;;;;;;5.67;5.33;;;;;17.03;58.56;101512.25;5074554;28;45485;-67
2022/07/02 02:43:41;;;;;;;;;5.00;5.00;;;;;17.01;58.42;101508.81;5076399;27;45460;-65
2022/07/02 02:46:06;;;;;;;;;4.00;4.00;;;;;16.94;58.42;101491.38;5076155;27;45418;-61
2022/07/02 02:48:35;;;;;;;;;6.00;6.00;;;;;16.98;58.29;101495.56;5073939;27;47480;-64
2022/07/02 02:51:01;;;;;;;;;4.33;4.33;;;;;17.06;58.34;101495.94;5075088;28;45207;-66
2022/07/02 02:53:27;;;;;;;;;4.00;4.00;;;;;17.00;58.43;101501.69;5074591;28;45510;-65
2022/07/02 02:55:52;;;;;;;;;4.00;4.00;;;;;16.93;58.67;101489.66;5073068;27;45321;-66
2022/07/02 02:58:18;;;;;;;;;11.00;6.33;;;;;17.02;58.56;101499.78;5075767;27;45883;-63
2022/07/02 03:00:44;;;;;;;;;5.33;4.00;;;;;16.99;58.57;101491.06;5076797;27;45435;-65
2022/07/02 03:03:09;;;;;;;;;5.67;5.00;;;;;17.00;58.37;101496.31;5074400;27;45444;-63
2022/07/02 03:05:35;;;;;;;;;5.00;5.00;;;;;17.05;58.41;101501.38;5076800;27;45468;-67
2022/07/02 03:08:00;;;;;;;;;9.00;6.00;;;;;17.03;58.68;101497.94;5072683;27;46023;-62
2022/07/02 03:10:26;;;;;;;;;4.67;4.67;;;;;17.04;58.53;101496.97;5063785;27;45395;-62
2022/07/02 03:12:51;;;;;;;;;6.00;3.67;;;;;17.04;58.21;101492.47;5070637;28;45460;-64
2022/07/02 03:15:17;;;;;;;;;7.00;6.00;;;;;17.02;58.50;101499.78;5076848;27;45573;-65
2022/07/02 03:17:42;;;;;;;;;6.33;6.33;;;;;16.99;58.48;101497.28;5078001;27;46209;-65
2022/07/02 03:20:08;;;;;;;;;7.00;6.33;;;;;17.02;58.45;101499.78;5060165;27;45409;-65
2022/07/02 03:22:33;;;;;;;;;5.00;5.00;;;;;16.95;58.41;101497.63;5072646;27;46889;-67
2022/07/02 03:24:59;;;;;;;;;3.67;3.67;;;;;16.97;58.40;101501.06;5074731;28;47048;-62
2022/07/02 03:27:24;;;;;;;;;6.00;6.00;;;;;17.02;58.53;101499.78;5074098;27;45289;-62
2022/07/02 03:29:51;;;;;;;;;7.33;7.00;;;;;17.01;58.62;101506.09;5061438;28;45280;-65
2022/07/02 03:32:17;;;;;;;;;5.33;5.33;;;;;16.97;58.73;101490.31;5066477;28;45340;-63
2022/07/02 03:34:43;;;;;;;;;6.33;6.33;;;;;17.01;58.56;101500.72;5076023;27;45665;-66
2022/07/02 03:37:08;;;;;;;;;6.00;6.00;;;;;17.02;58.87;101501.59;5073938;27;48187;-61
2022/07/02 03:39:34;;;;;;;;;5.00;5.00;;;;;17.00;58.86;101488.28;5073200;27;45326;-64
2022/07/02 03:41:59;;;;;;;;;7.67;6.33;;;;;17.02;58.75;101493.53;5073738;27;45477;-64
2022/07/02 03:44:24;;;;;;;;;7.33;7.33;;;;;16.94;58.91;101480.66;5067512;27;45725;-62
2022/07/02 03:46:50;;;;;;;;;6.00;6.00;;;;;17.02;58.91;101494.41;5073745;28;45432;-64
2022/07/02 03:49:15;;;;;;;;;9.00;6.33;;;;;16.97;58.44;101496.53;5072582;27;45933;-65
2022/07/02 03:51:41;;;;;;;;;7.00;7.00;;;;;16.97;58.71;101496.53;5075021;27;45447;-68
2022/07/02 03:54:06;;;;;;;;;6.00;5.00;;;;;16.97;58.86;101501.06;5074722;27;45424;-66
2022/07/02 03:56:32;;;;;;;;;9.00;7.33;;;;;16.95;59.04;101500.31;5074310;27;45644;-63
2022/07/02 03:58:57;;;;;;;;;11.33;7.00;;;;;16.97;58.82;101496.53;5075416;27;45387;-63
2022/07/02 04:01:23;;;;;;;;;7.00;6.67;;;;;17.00;59.01;101498.16;5074683;28;45311;-64
2022/07/02 04:03:48;;;;;;;;;7.00;7.00;;;;;17.02;58.78;101509.66;5074770;27;45495;-62
2022/07/02 04:06:14;;;;;;;;;7.33;7.00;;;;;16.98;58.65;101500.94;5073267;27;46176;-68
2022/07/02 04:08:39;;;;;;;;;10.33;6.00;;;;;16.95;58.95;101497.63;5069967;27;45489;-63
2022/07/02 04:11:05;;;;;;;;;10.67;6.00;;;;;17.00;58.89;101509.75;5061356;28;45340;-61
2022/07/02 04:13:30;;;;;;;;;6.33;6.33;;;;;17.01;58.95;101503.44;5071262;28;45898;-66
2022/07/02 04:15:55;;;;;;;;;8.00;7.33;;;;;16.97;58.32;101496.53;5070102;27;46921;-71
2022/07/02 04:18:21;;;;;;;;;6.00;6.00;;;;;16.97;58.40;101498.38;5054691;28;45978;-64
2022/07/02 04:20:47;;;;;;;;;8.67;8.67;;;;;16.96;57.35;101493.97;5066532;28;45366;-69
2022/07/02 04:23:12;;;;;;;;;12.33;8.67;;;;;16.93;57.13;101500.41;5067562;28;45443;-67
2022/07/02 04:25:37;;;;;;;;;7.00;7.00;;;;;16.96;57.08;101508.25;5075429;27;46270;-63
2022/07/02 04:28:04;;;;;;;;;9.00;8.33;;;;;16.98;57.36;101510.84;5074142;27;45328;-65
2022/07/02 04:30:29;;;;;;;;;8.67;8.33;;;;;16.96;57.01;101499.34;5073079;27;45465;-61
2022/07/02 04:32:55;;;;;;;;;11.67;9.67;;;;;16.95;57.59;101501.16;5073441;28;45536;-62
2022/07/02 04:35:20;;;;;;;;;8.33;8.33;;;;;16.95;56.80;101506.53;5073819;27;47893;-65
2022/07/02 04:37:46;;;;;;;;;8.00;7.00;;;;;16.94;57.15;101506.66;5070989;28;45331;-66
2022/07/02 04:40:11;;;;;;;;;12.00;8.67;;;;;16.97;57.34;101515.34;5074296;27;45472;-65
2022/07/02 04:42:37;;;;;;;;;10.67;10.33;;;;;16.96;56.95;101502.88;5059408;27;45656;-65
2022/07/02 04:45:03;;;;;;;;;7.00;7.00;;;;;16.98;56.85;101513.53;5069203;28;46224;-62
2022/07/02 04:47:28;;;;;;;;;8.00;7.00;;;;;16.97;56.68;101501.91;5055739;28;45342;-62
2022/07/02 04:49:53;;;;;;;;;11.00;7.00;;;;;16.95;57.15;101500.31;5063524;28;45423;-68
2022/07/02 04:52:19;;;;;;;;;7.67;7.67;;;;;16.99;57.28;101502.66;5075521;27;45433;-66
2022/07/02 04:54:44;;;;;;;;;9.00;7.33;;;;;17.00;57.10;101501.69;5074379;27;47041;-69
2022/07/02 04:57:10;;;;;;;;;9.33;9.33;;;;;17.05;57.38;101513.00;5078258;27;45279;-66
2022/07/02 04:59:35;;;;;;;;;10.67;8.67;;;;;17.06;57.83;101501.31;5077316;27;45414;-68
2022/07/02 05:02:01;;;;;;;;;9.33;7.33;;;;;17.09;56.88;101506.47;5088454;27;45415;-62
2022/07/02 05:04:26;;;;;;;;;9.67;8.00;;;;;17.07;57.11;101507.53;5066030;27;45432;-67
2022/07/02 05:06:52;;;;;;;;;13.00;10.67;;;;;17.15;57.12;101504.31;5084922;27;45877;-65
2022/07/02 05:09:17;;;;;;;;;13.00;11.00;;;;;17.07;57.58;101492.28;5079925;27;46419;-67
2022/07/02 05:11:42;;;;;;;;;12.00;8.00;;;;;17.09;57.12;101495.72;5069718;27;45431;-63
2022/07/02 05:14:08;;;;;;;;;10.67;10.67;;;;;17.15;57.31;101498.94;5078510;27;45541;-67
2022/07/02 05:16:34;;;;;;;;;10.67;9.67;;;;;17.19;57.38;101501.31;5076057;27;45510;-63
2022/07/02 05:18:59;;;;;;;;;16.67;12.67;;;;;17.17;57.06;101491.59;5073006;28;45412;-61
2022/07/02 05:21:25;;;;;;;;;12.00;10.67;;;;;17.23;57.04;101507.34;5072929;27;45735;-68
2022/07/02 05:23:50;;;;;;;;;16.33;14.67;;;;;17.24;57.43;101511.75;5086992;27;45918;-65
2022/07/02 05:26:16;;;;;;;;;13.00;12.00;;;;;17.25;56.84;101511.63;5079029;27;45264;-69
2022/07/02 05:28:41;;;;;;;;;14.33;11.33;;;;;17.27;56.49;101514.22;5074724;27;45278;-65
2022/07/02 05:31:06;;;;;;;;;12.67;11.33;;;;;17.24;57.09;101501.84;5078354;27;45386;-61
2022/07/02 05:33:32;;;;;;;;;12.67;11.67;;;;;17.31;56.87;101499.56;5072946;27;45560;-66
2022/07/02 05:35:57;;;;;;;;;15.00;12.67;;;;;17.35;56.66;101501.09;5092682;27;45356;-65
2022/07/02 05:38:23;;;;;;;;;17.33;14.67;;;;;17.40;57.01;101501.63;5084440;27;45637;-63
2022/07/02 05:40:48;;;;;;;;;13.67;11.33;;;;;17.45;56.99;101503.97;5078193;27;45401;-71
2022/07/02 05:43:14;;;;;;;;;14.00;12.33;;;;;17.44;56.51;101488.81;5070666;28;47112;-64
2022/07/02 05:45:39;;;;;;;;;11.67;11.67;;;;;17.49;56.47;101498.31;5067727;27;45277;-66
2022/07/02 05:48:05;;;;;;;;;15.67;15.00;;;;;17.47;56.63;101491.31;5075000;27;45522;-66
2022/07/02 05:50:30;;;;;;;;;13.33;11.33;;;;;17.58;56.68;101508.41;5073977;27;45539;-68
2022/07/02 05:52:55;;;;;;;;;11.33;10.67;;;;;17.56;55.89;101498.72;5068961;28;46386;-68
2022/07/02 05:55:21;;;;;;;;;12.67;9.00;;;;;17.60;54.89;101503.78;5077410;27;45584;-66
2022/07/02 05:57:47;;;;;;;;;11.33;11.33;;;;;17.60;54.89;101500.22;5076028;27;45503;-67
2022/07/02 06:00:13;;;;;;;;;9.33;9.33;;;;;17.67;55.20;101509.56;5074276;27;45913;-64
2022/07/02 06:02:39;;;;;;;;;10.67;10.67;;;;;17.68;55.12;101501.41;5068088;27;47286;-65
2022/07/02 06:07:38;;;;;;;;;7.00;7.00;;;;;17.73;54.32;101517.25;5077248;27;45385;-61
2022/07/02 06:07:50;;;;;;;;;11.33;9.67;;;;;17.78;54.42;101503.47;5074544;27;45536;-63
2022/07/02 06:10:18;;;;;;;;;8.00;8.00;;;;;17.79;54.06;101507.88;5074624;27;45591;-62
2022/07/02 06:12:52;;;;;;;;;7.67;7.67;;;;;17.79;54.38;101492.59;5076480;27;46907;-63
2022/07/02 06:15:18;;;;;;;;;8.33;8.33;;;;;17.85;54.47;101510.13;5077501;27;45383;-67
2022/07/02 06:17:44;;;;;;;;;8.33;8.33;;;;;17.87;53.95;101497.44;5062379;28;45340;-60
2022/07/02 06:20:11;;;;;;;;;8.00;8.00;;;;;17.89;54.01;101509.78;5093462;27;45293;-61
2022/07/02 06:22:37;;;;;;;;;8.00;8.00;;;;;17.90;53.51;101495.38;5092992;27;46181;-64
2022/07/02 06:25:03;;;;;;;;;9.00;7.33;;;;;18.02;53.50;101514.28;5077959;27;45349;-62
2022/07/02 06:27:33;;;;;;;;;15.67;14.33;;;;;18.03;53.31;101516.88;5076197;27;45396;-65
2022/07/02 06:30:08;;;;;;;;;12.67;11.67;;;;;18.02;52.90;101496.31;5075030;27;45202;-64
2022/07/02 06:32:33;;;;;;;;;9.67;9.67;;;;;18.07;52.65;101498.66;5077086;27;46407;-67
2022/07/02 06:34:59;;;;;;;;;14.33;9.00;;;;;18.11;52.30;101505.56;5070378;27;45496;-64
2022/07/02 06:37:25;;;;;;;;;9.67;9.00;;;;;18.12;52.42;101496.50;5074422;27;45338;-63
2022/07/02 06:39:53;;;;;;;;;8.67;8.00;;;;;18.15;53.63;101490.88;5058648;27;45627;-62
2022/07/02 06:42:19;;;;;;;;;9.00;8.00;;;;;18.13;52.39;101488.31;5065534;28;46239;-62
2022/07/02 06:44:50;;;;;;;;;10.33;9.00;;;;;18.24;51.75;101499.16;5072829;27;46327;-65
2022/07/02 06:47:16;;;;;;;;;9.67;8.67;;;;;18.27;52.69;101504.31;5072766;27;45463;-65
2022/07/02 06:49:41;;;;;;;;;9.33;8.00;;;;;18.30;52.98;101494.28;5077112;28;45565;-66
2022/07/02 06:52:08;;;;;;;;;12.67;9.00;;;;;18.34;52.10;101490.38;5076777;27;46303;-66
2022/07/02 06:54:33;;;;;;;;;8.67;7.00;;;;;18.38;52.31;101497.28;5076294;27;45446;-63
2022/07/02 06:56:59;;;;;;;;;15.67;9.33;;;;;18.33;52.78;101488.66;5076157;27;45346;-65
2022/07/02 06:59:25;;;;;;;;;8.00;8.00;;;;;18.45;51.79;101498.53;5076520;27;45351;-63
2022/07/02 07:01:50;;;;;;;;;8.67;8.67;;;;;18.47;51.85;101492.03;5057686;27;46259;-66
2022/07/02 07:04:16;;;;;;;;;9.00;7.67;;;;;18.54;51.17;101503.22;5056949;28;45856;-63
2022/07/02 07:06:51;;;;;;;;;10.00;7.00;;;;;18.61;51.38;101506.31;5069912;27;45482;-65
2022/07/02 07:09:17;;;;;;;;;6.00;6.00;;;;;18.61;49.91;101493.69;5073520;27;45445;-60
2022/07/02 07:11:43;;;;;;;;;5.33;3.67;;;;;18.66;48.66;101491.56;5058228;27;46075;-61
2022/07/02 07:14:09;;;;;;;;;4.67;4.67;;;;;18.70;48.45;101492.19;5055740;27;45345;-61
2022/07/02 07:16:34;;;;;;;;;3.00;3.00;;;;;18.76;48.50;101497.97;5075311;27;45270;-67
2022/07/02 07:19:01;;;;;;;;;4.33;3.00;;;;;18.81;48.49;101500.31;5063559;27;45227;-65
2022/07/02 07:21:26;;;;;;;;;4.33;4.00;;;;;18.86;49.06;101496.28;5055657;28;46823;-66
2022/07/02 07:23:52;;;;;;;;;5.33;5.33;;;;;18.84;49.21;101484.75;5066434;28;45409;-64
2022/07/02 07:26:17;;;;;;;;;3.00;3.00;;;;;18.92;48.19;101480.63;5077503;27;45314;-65
2022/07/02 07:28:43;;;;;;;;;2.33;2.33;;;;;19.00;48.19;101495.22;5075748;27;45608;-66
2022/07/02 07:31:08;;;;;;;;;3.67;3.33;;;;;18.92;47.83;101472.53;5076905;27;45404;-64
2022/07/02 07:33:34;;;;;;;;;3.00;3.00;;;;;19.07;47.90;101495.63;5073871;27;45266;-67
2022/07/02 07:35:59;;;;;;;;;8.00;2.00;;;;;19.11;46.38;101497.09;5074086;27;45347;-67
2022/07/02 07:38:25;;;;;;;;;1.67;0.00;;;;;19.12;47.49;101490.72;5074030;28;45601;-68
2022/07/02 07:40:50;;;;;;;;;2.33;2.00;;;;;19.15;46.74;101491.34;5059724;27;45452;-63
2022/07/02 07:43:16;;;;;;;;;6.00;1.67;;;;;19.11;46.53;101483.59;5061226;28;45322;-65
2022/07/02 07:45:41;;;;;;;;;2.00;2.00;;;;;19.18;46.13;101479.47;5067318;28;45958;-68
2022/07/02 07:48:06;;;;;;;;;1.00;1.00;;;;;19.27;46.20;101481.44;5072408;27;45439;-67
2022/07/02 07:50:32;;;;;;;;;3.33;2.33;;;;;19.23;47.72;101469.16;5062598;27;45462;-64
2022/07/02 07:52:57;;;;;;;;;2.00;2.00;;;;;19.28;46.17;101458.91;5075204;27;45329;-61
2022/07/02 07:55:23;;;;;;;;;3.00;1.67;;;;;19.40;46.73;101473.22;5075994;27;45358;-61
2022/07/02 07:57:49;;;;;;;;;3.00;3.00;;;;;19.47;46.65;101476.31;5070681;27;46038;-65
2022/07/02 08:00:15;;;;;;;;;3.33;2.33;;;;;19.56;45.38;101475.63;5061002;27;45545;-66
2022/07/02 08:02:40;;;;;;;;;2.33;1.00;;;;;19.62;45.00;101475.13;5056182;28;45338;-63
2022/07/02 08:05:06;;;;;;;;;4.00;2.00;;;;;19.66;45.17;101476.56;5056401;28;45410;-63
2022/07/02 08:07:39;;;;;;;;;2.00;1.00;;;;;19.72;45.48;101466.16;5056245;28;45472;-64
2022/07/02 08:10:06;;;;;;;;;2.33;2.33;;;;;19.72;44.71;101468.00;5056764;27;47184;-60
2022/07/02 08:12:32;;;;;;;;;1.00;1.00;;;;;19.79;44.70;101471.91;5054693;28;45534;-62
2022/07/02 08:14:59;;;;;;;;;1.67;1.67;;;;;19.79;44.28;101466.50;5056263;28;45318;-63
2022/07/02 08:17:25;;;;;;;;;1.00;1.00;;;;;19.86;44.35;101467.75;5055433;28;45331;-61
2022/07/02 08:19:50;;;;;;;;;1.67;1.67;;;;;19.91;44.21;101468.22;5067522;27;45427;-59
2022/07/02 08:22:16;;;;;;;;;1.00;1.00;;;;;19.93;43.55;101466.28;5076482;27;45487;-63
2022/07/02 08:24:41;;;;;;;;;3.00;3.00;;;;;20.03;44.44;101474.44;5076158;28;45407;-65
2022/07/02 08:27:07;;;;;;;;;1.33;1.33;;;;;20.09;43.84;101462.31;5072045;27;45294;-61
2022/07/02 08:29:32;;;;;;;;;1.33;1.33;;;;;20.31;43.98;101473.03;5066180;27;45481;-66
2022/07/02 08:31:58;;;;;;;;;2.33;2.33;;;;;20.73;42.07;101465.06;5056237;28;46854;-68
2022/07/02 08:34:23;;;;;;;;;1.00;1.00;;;;;21.29;41.67;101454.78;5071988;27;45484;-65
2022/07/02 08:36:48;;;;;;;;;1.33;1.33;;;;;21.98;41.30;101459.47;5075518;28;45238;-68
2022/07/02 08:39:14;;;;;;;;;2.00;0.00;;;;;22.47;39.63;101438.75;5079148;27;46387;-64
2022/07/02 08:41:43;;;;;;;;;2.00;2.00;;;;;23.08;38.91;101446.59;5078995;27;45406;-66
2022/07/02 08:44:12;;;;;;;;;1.25;1.00;;;;;23.69;39.56;101451.53;5059874;28;45329;-66
2022/07/02 08:46:42;;;;;;;;;1.00;1.00;;;;;24.26;38.36;101449.50;5066470;27;45240;-62
2022/07/02 08:49:08;;;;;;;;;1.00;0.00;;;;;24.64;35.99;101427.47;5079690;27;45405;-71
2022/07/02 08:51:34;;;;;;;;;2.60;0.80;;;;;24.94;35.90;101418.00;5079749;27;45499;-64
2022/07/02 08:54:00;;;;;;;;;1.00;1.00;;;;;25.55;36.48;101435.25;5066982;27;45485;-68
2022/07/02 08:56:27;;;;;;;;;1.00;1.00;;;;;25.94;35.21;101429.28;5064836;27;45362;-68
2022/07/02 08:58:54;;;;;;;;;1.80;1.00;;;;;26.36;33.96;101432.81;5071787;27;47114;-68
2022/07/02 09:01:21;;;;;;;;;0.40;0.40;;;;;26.69;34.16;101430.09;5063909;27;45782;-64
2022/07/02 09:03:51;;;;;;;;;1.60;1.60;;;;;27.04;30.48;101427.03;5074268;27;45557;-65
2022/07/02 09:06:18;;;;;;;;;1.00;1.00;;;;;27.38;31.51;101408.72;5079554;27;45349;-70
2022/07/02 09:08:44;;;;;;;;;1.00;1.00;;;;;27.75;33.09;101428.06;5078579;27;45383;-67
2022/07/02 09:11:11;;;;;;;;;1.00;1.00;;;;;28.18;31.96;101433.97;5079048;28;45329;-62
2022/07/02 09:13:37;;;;;;;;;0.00;0.00;;;;;28.39;32.83;101433.38;5069212;27;45412;-67
2022/07/02 09:16:05;;;;;;;;;0.00;0.00;;;;;28.62;30.39;101431.44;5073884;27;45510;-64
2022/07/02 09:18:30;;;;;;;;;0.20;0.20;;;;;28.96;30.22;101416.47;5077470;28;46620;-68
2022/07/02 09:20:56;;;;;;;;;1.00;1.00;;;;;29.13;29.24;101415.25;5074313;27;45695;-64
2022/07/02 09:23:22;;;;;;;;;1.00;1.00;;;;;29.42;27.67;101405.34;5078631;27;45495;-67
2022/07/02 09:25:48;;;;;;;;;0.40;0.40;;;;;29.76;28.74;101421.22;5079180;27;45447;-62
2022/07/02 09:28:16;;;;;;;;;1.60;0.00;;;;;30.00;30.24;101422.78;5077302;27;46370;-63
2022/07/02 09:30:41;;;;;;;;;0.40;0.40;;;;;30.17;28.30;101416.06;5073825;27;45570;-66
2022/07/02 09:33:28;;;;;;;;;0.50;0.50;;;;;30.37;28.15;101417.13;5058297;28;45470;-66
2022/07/02 09:35:54;;;;;;;;;0.00;0.00;;;;;30.52;27.48;101412.41;5062366;27;45472;-69
2022/07/02 09:38:20;;;;;;;;;1.00;0.00;;;;;30.55;26.63;101413.91;5058424;28;46011;-61
2022/07/02 09:40:57;;;;;;;;;2.25;2.25;;;;;30.83;26.95;101409.31;5076923;27;45452;-64
2022/07/02 09:43:32;;;;;;;;;0.60;0.60;;;;;31.18;25.20;101401.13;5075491;27;45417;-65
2022/07/02 09:45:59;;;;;;;;;1.60;1.60;;;;;31.43;25.99;101404.25;5077760;27;45549;-66
2022/07/02 09:48:25;;;;;;;;;0.00;0.00;;;;;31.58;25.97;101395.88;5067165;27;45944;-65
2022/07/02 09:50:54;;;;;;;;;1.00;1.00;;;;;31.79;24.06;101405.94;5075518;27;45467;-64
2022/07/02 09:53:20;;;;;;;;;0.00;0.00;;;;;31.80;25.23;101402.16;5073627;27;45349;-64
2022/07/02 09:55:50;;;;;;;;;2.00;1.00;;;;;32.09;23.86;101409.22;5085147;27;45622;-64
2022/07/02 09:58:26;;;;;;;;;0.00;0.00;;;;;32.19;24.91;101406.91;5098463;27;46281;-64
2022/07/02 10:00:53;;;;;;;;;0.20;0.20;;;;;32.39;22.42;101394.06;5098986;27;45286;-61
2022/07/02 10:03:19;;;;;;;;;0.40;0.40;;;;;32.36;24.66;101411.00;5082749;27;45466;-60
2022/07/02 10:05:48;;;;;;;;;0.80;0.80;;;;;32.41;24.83;101400.19;5077003;28;46052;-67
2022/07/02 10:08:14;;;;;;;;;0.60;0.60;;;;;32.55;23.43;101403.78;5073793;28;45303;-63
2022/07/02 10:10:40;;;;;;;;;0.00;0.00;;;;;32.58;22.57;101389.63;5076575;27;45462;-62
2022/07/02 10:13:07;;;;;;;;;0.00;0.00;;;;;32.58;23.85;101386.03;5078019;27;45330;-64
2022/07/02 10:15:37;;;;;;;;;0.00;0.00;;;;;32.54;23.26;101363.56;5076646;27;45452;-69
2022/07/02 10:18:03;;;;;;;;;1.00;1.00;;;;;32.66;23.08;101386.66;5076407;27;47717;-69
2022/07/02 10:20:30;;;;;;;;;0.00;0.00;;;;;32.62;23.09;101377.13;5076519;27;45472;-65
2022/07/02 10:23:04;;;;;;;;;1.00;1.00;;;;;32.25;22.77;101373.88;5075441;28;45690;-67
2022/07/02 10:25:31;;;;;;;;;1.40;0.00;;;;;31.66;21.96;101374.56;5075957;27;45666;-60
2022/07/02 10:27:57;;;;;;;;;0.00;0.00;;;;;31.23;24.43;101354.66;5076138;28;47028;-62
2022/07/02 10:30:31;;;;;;;;;0.60;0.60;;;;;31.17;24.15;101373.84;5059304;28;45461;-59
2022/07/02 10:33:31;;;;;;;;;0.80;0.80;;;;;31.06;25.65;101373.34;5093634;27;45230;-56
2022/07/02 10:35:59;;;;;;;;;0.20;0.20;;;;;30.83;24.66;101370.88;5078620;27;45400;-56
2022/07/02 10:38:33;;;;;;;;;0.40;0.00;;;;;30.37;23.44;101370.47;5074990;27;45256;-58
2022/07/02 10:40:59;;;;;;;;;2.00;0.60;;;;;29.67;24.84;101371.13;5073615;28;45378;-57
2022/07/02 10:43:29;;;;;;;;;1.25;1.25;;;;;29.27;26.32;101362.38;5063338;28;45356;-68
2022/07/02 10:46:07;;;;;;;;;0.00;0.00;;;;;28.91;27.54;101366.88;5075231;27;45365;-67
2022/07/02 10:48:50;;;;;;;;;2.20;0.60;;;;;28.55;26.46;101362.09;5098333;27;47188;-72
2022/07/02 10:51:25;;;;;;;;;1.40;1.00;;;;;28.19;26.30;101370.88;5092052;27;45403;-69
2022/07/02 10:53:56;;;;;;;;;0.60;0.60;;;;;27.77;26.13;101367.75;5078658;27;45370;-65
2022/07/02 10:56:23;;;;;;;;;0.00;0.00;;;;;27.37;27.12;101353.22;5076085;27;45341;-62
2022/07/02 10:58:49;;;;;;;;;0.00;0.00;;;;;27.07;27.39;101362.19;5066606;27;45483;-62
2022/07/02 11:01:21;;;;;;;;;1.00;1.00;;;;;26.80;28.58;101347.88;5063955;27;45395;-69
2022/07/02 11:03:59;;;;;;;;;0.00;0.00;;;;;26.66;28.54;101351.31;5070451;27;45403;-60
2022/07/02 11:06:27;;;;;;;;;0.40;0.40;;;;;26.45;27.94;101352.72;5078232;27;45385;-63
2022/07/02 11:08:52;;;;;;;;;0.40;0.40;;;;;26.36;28.55;101359.19;5072856;27;45554;-69
2022/07/02 11:11:42;;;;;;;;;2.00;1.00;;;;;26.15;29.54;101343.28;5076105;27;45377;-63
2022/07/02 11:14:13;;;;;;;;;0.80;0.80;;;;;26.02;29.24;101345.66;5072455;27;45507;-63
2022/07/02 11:16:49;;;;;;;;;0.80;0.80;;;;;25.93;29.32;101349.41;5071933;27;45455;-61
2022/07/02 11:19:23;;;;;;;;;1.80;1.80;;;;;25.87;30.36;101348.19;5074400;28;46197;-69
2022/07/02 11:21:50;;;;;;;;;1.80;1.80;;;;;25.90;30.27;101360.63;5088010;27;45334;-65
2022/07/02 11:24:21;;;;;;;;;1.00;1.00;;;;;25.70;30.44;101354.63;5070433;27;45615;-55
2022/07/02 11:26:47;;;;;;;;;1.00;1.00;;;;;25.62;30.49;101348.25;5073121;27;45489;-52